CYAX weather

Lac Du Bonnet Airport
Lac Du Bonnet, Manitoba, Canada

Public forecast

Using degrees Celsius for public forecast. Weather courtesy of forecast.io.

Closest aviation weather report (METAR) to Lac Du Bonnet Airport

Closest report is Winnipeg / James Armstrong Richardson International Airport, 52.7 nm (97.6 km) WSW. Retrieved 2020/02/17 20:00 UTC (53 minutes ago):

CYWG 172000Z 32010KT 15SM SCT020 SCT150 M10/M15 A3002 RMK SC3AC1 SLP186

Closest aviation forecast (TAF) to Lac Du Bonnet Airport

Closest forecast is Winnipeg / James Armstrong Richardson International Airport, 52.7 nm (97.6 km) WSW. Retrieved 2020/02/17 18:42 UTC (2 hours ago):

TAF CYWG 171738Z 1718/1818 32012KT P6SM -SN SCT015 BKN040 TEMPO 1718/1814 5SM -SN BKN015 OVC040 FM181400 32014KT P6SM FEW020 RMK NXT FCST BY 180000Z